Historyczne dane pomiarowe

Dodano dane terminowe – wersja testowa.

Dane z okresu 1951-2019

Wersja bazy: 1.34 [2019-03-16, lista zmian], aktualizacja planowana na 2019-04-15

Dane meteo z obszaru Polski uzyskane na podstawie danych udostępnionych przez Instytut Meteorologii i Gospodarki Wodnej – Państwowy Instytut Badawczy.

 

Wybierz Datę:    

       

TemperaturaWilgotnośćWiatrCiśnienieOpadyŚniegCzas trwania zjawisk
 Stacja t tx tn tng RH VA  wxwx mslp ppp RRR   cm mm wxwxwxwxwxwxwx
1997-09-11 11.4 15.9 8.7 6.9 81.5- 3.7 2.7---- 0.0------------
1997-09-12 14.1 21.1 7.8 7.0 69.5- 2.0 4.7---- 0.0------------
1997-09-13 18.8 24.4 14.8 12.9 73.0- 3.0 4.0---- 5.5------------
1997-09-14 12.9 19.3 10.1 10.1 86.8- 5.3 3.0---- 0.0------------
1997-09-15 9.8 17.2 5.4 3.0 84.0- 3.0 2.0---- 0.0------------
1997-09-16 11.9 20.4 5.2 2.7 80.3- 1.3 3.0---- 0.0------------
1997-09-17 14.7 21.2 10.3 7.9 70.3- 0.7 4.7---- 0.0------------
1997-09-18 14.9 21.7 10.3 7.6 78.0- 4.3 3.3---- 0.0------------
1997-09-19 13.6 21.3 10.3 9.9 90.0- 7.0 2.3---- 5.9------------
1997-09-20 9.6 13.9 7.1 4.0 77.8- 2.7 3.0---- 0.0------------
1997-09-21 8.9 15.1 5.8 2.4 78.0- 1.7 2.0---- 0.0------------
1997-09-22 9.3 16.4 3.9 1.0 84.3- 2.0 2.0---- 0.0------------
1997-09-23 11.2 18.9 4.6 1.2 80.0- 3.3 3.3---- 0.0------------
1997-09-24 9.7 15.1 6.8 5.9 81.5- 3.7 2.7---- 0.0------------
1997-09-25 9.9 13.7 6.1 3.7 92.3- 8.0 3.7---- 2.5------------
1997-09-26 13.2 17.4 10.3 8.9 87.5- 7.0 3.3---- 0.0------------
1997-09-27 11.4 15.0 9.8 8.4 77.0- 6.7 3.0---- 0.3------------
1997-09-28 9.5 12.6 7.7 6.9 88.5- 7.7 2.3---- 0.0------------
1997-09-29 9.1 14.4 5.4 3.2 85.5- 5.3 3.3---- 0.0------------
1997-09-30 11.4 12.6 8.6 5.9 88.5- 8.0 4.0---- 3.2------------
1997-10-01 10.6 13.4 9.3 7.4 90.5- 5.7 4.7---- 12.5------------
1997-10-02 10.5 12.9 8.3 5.1 89.0- 7.7 6.0---- 6.6------------
1997-10-03 9.0 12.0 7.5 5.9 87.3- 6.3 6.0---- 2.6------------
1997-10-04 9.9 12.9 7.0 4.7 83.5- 7.7 4.7---- 0.0------------
1997-10-05 13.9 16.5 11.5 9.1 76.3- 7.7 4.3---- 2.0------------
1997-10-06 11.2 15.9 8.8 8.4 98.0- 5.0 1.0---- 0.0------------
1997-10-07 15.2 20.4 10.8 6.9 81.8- 2.3 6.0---- 0.0------------
1997-10-08 16.7 21.4 14.5 10.9 85.8- 5.7 2.0---- 0.0------------
1997-10-09 17.7 20.6 15.0 12.4 84.3- 7.7 6.7---- 1.4------------
1997-10-10 17.2 20.6 15.3 14.4 87.8- 7.7 3.3---- 12.8------------
187.4 ms

 

Źródłem pochodzenia danych jest Instytut Meteorologii i Gospodarki Wodnej – Państwowy Instytut Badawczy. Dane Instytutu Meteorologii i Gospodarki Wodnej – Państwowego Instytutu Badawczego zostały przetworzone.

Dane źródłowe można odnaleźć na stronie https://dane.imgw.pl